<?xml version="1.0" encoding="UTF-8" standalone="no" ?>
<gpx xmlns="http://www.topografix.com/GPX/1/1" xmlns:xsi="http://www.w3.org/2001/XMLSchema-instance" xsi:schemaLocation="http://www.topografix.com/GPX/1/1 http://www.topografix.com/GPX/1/1/gpx.xsd" version="1.1" creator="VisuGPX - https://www.visugpx.com">
  <metadata>
    <name>Les Glières 01</name>
    <desc><![CDATA[projet 01]]></desc>
  </metadata>
  <trk>
    <name><![CDATA[Brizon Mont Saxonnex  Romme La Colombière avec Jean Pierre ]]></name>
    <extensions>
      <line xmlns="http://www.topografix.com/GPX/gpx_style/0/2">
        <color>00FFFF</color>
        <width>4</width>
      </line>
    </extensions>
    <trkseg>
      <trkpt lat="46.15282" lon="6.32996">
        <ele>265.6</ele>
        <time>2020-09-30T08:25:03Z</time>
      </trkpt>
      <trkpt lat="46.15293" lon="6.32963">
        <ele>266.6</ele>
        <time>2020-09-30T08:24:59Z</time>
      </trkpt>
      <trkpt lat="46.15305" lon="6.32932">
        <ele>265.8</ele>
        <time>2020-09-30T08:24:55Z</time>
      </trkpt>
      <trkpt lat="46.15315" lon="6.329">
        <ele>264.8</ele>
        <time>2020-09-30T08:24:51Z</time>
      </trkpt>
      <trkpt lat="46.15325" lon="6.32866">
        <ele>263.4</ele>
        <time>2020-09-30T08:24:47Z</time>
      </trkpt>
      <trkpt lat="46.15339" lon="6.32835">
        <ele>263.8</ele>
        <time>2020-09-30T08:24:43Z</time>
      </trkpt>
      <trkpt lat="46.15355" lon="6.32808">
        <ele>265</ele>
        <time>2020-09-30T08:24:39Z</time>
      </trkpt>
      <trkpt lat="46.15369" lon="6.32784">
        <ele>265</ele>
        <time>2020-09-30T08:24:35Z</time>
      </trkpt>
      <trkpt lat="46.15383" lon="6.3276">
        <ele>264.2</ele>
        <time>2020-09-30T08:24:31Z</time>
      </trkpt>
      <trkpt lat="46.15393" lon="6.32734">
        <ele>263.2</ele>
        <time>2020-09-30T08:24:27Z</time>
      </trkpt>
      <trkpt lat="46.15398" lon="6.32706">
        <ele>262.4</ele>
        <time>2020-09-30T08:24:23Z</time>
      </trkpt>
      <trkpt lat="46.15394" lon="6.32677">
        <ele>260.8</ele>
        <time>2020-09-30T08:24:19Z</time>
      </trkpt>
      <trkpt lat="46.15393" lon="6.32647">
        <ele>259.2</ele>
        <time>2020-09-30T08:24:15Z</time>
      </trkpt>
      <trkpt lat="46.15399" lon="6.32617">
        <ele>257.6</ele>
        <time>2020-09-30T08:24:11Z</time>
      </trkpt>
      <trkpt lat="46.1541" lon="6.32589">
        <ele>256.2</ele>
        <time>2020-09-30T08:24:07Z</time>
      </trkpt>
      <trkpt lat="46.1543" lon="6.32563">
        <ele>254.2</ele>
        <time>2020-09-30T08:24:03Z</time>
      </trkpt>
      <trkpt lat="46.15451" lon="6.32535">
        <ele>253.2</ele>
        <time>2020-09-30T08:23:59Z</time>
      </trkpt>
      <trkpt lat="46.15466" lon="6.32497">
        <ele>252.8</ele>
        <time>2020-09-30T08:23:55Z</time>
      </trkpt>
      <trkpt lat="46.1548" lon="6.32454">
        <ele>252.4</ele>
        <time>2020-09-30T08:23:51Z</time>
      </trkpt>
      <trkpt lat="46.15495" lon="6.32408">
        <ele>254</ele>
        <time>2020-09-30T08:23:47Z</time>
      </trkpt>
      <trkpt lat="46.15515" lon="6.3237">
        <ele>257.2</ele>
        <time>2020-09-30T08:23:43Z</time>
      </trkpt>
      <trkpt lat="46.15543" lon="6.32358">
        <ele>257</ele>
        <time>2020-09-30T08:23:39Z</time>
      </trkpt>
      <trkpt lat="46.15573" lon="6.32344">
        <ele>256.6</ele>
        <time>2020-09-30T08:23:35Z</time>
      </trkpt>
      <trkpt lat="46.15598" lon="6.32316">
        <ele>257.2</ele>
        <time>2020-09-30T08:23:31Z</time>
      </trkpt>
      <trkpt lat="46.15615" lon="6.32287">
        <ele>259</ele>
        <time>2020-09-30T08:23:27Z</time>
      </trkpt>
      <trkpt lat="46.15627" lon="6.3226">
        <ele>259.8</ele>
        <time>2020-09-30T08:23:23Z</time>
      </trkpt>
      <trkpt lat="46.1564" lon="6.3223">
        <ele>259.2</ele>
        <time>2020-09-30T08:23:19Z</time>
      </trkpt>
      <trkpt lat="46.15652" lon="6.32198">
        <ele>259.8</ele>
        <time>2020-09-30T08:23:15Z</time>
      </trkpt>
      <trkpt lat="46.15665" lon="6.32167">
        <ele>261</ele>
        <time>2020-09-30T08:23:11Z</time>
      </trkpt>
      <trkpt lat="46.15678" lon="6.3214">
        <ele>261.8</ele>
        <time>2020-09-30T08:23:07Z</time>
      </trkpt>
      <trkpt lat="46.15692" lon="6.32116">
        <ele>262.4</ele>
        <time>2020-09-30T08:23:03Z</time>
      </trkpt>
      <trkpt lat="46.15708" lon="6.32099">
        <ele>262.2</ele>
        <time>2020-09-30T08:22:59Z</time>
      </trkpt>
      <trkpt lat="46.15726" lon="6.32086">
        <ele>262</ele>
        <time>2020-09-30T08:22:55Z</time>
      </trkpt>
      <trkpt lat="46.15743" lon="6.32074">
        <ele>260.8</ele>
        <time>2020-09-30T08:22:51Z</time>
      </trkpt>
      <trkpt lat="46.15759" lon="6.32063">
        <ele>259.4</ele>
        <time>2020-09-30T08:22:47Z</time>
      </trkpt>
      <trkpt lat="46.15777" lon="6.3205">
        <ele>258</ele>
        <time>2020-09-30T08:22:43Z</time>
      </trkpt>
      <trkpt lat="46.15797" lon="6.32038">
        <ele>256.4</ele>
        <time>2020-09-30T08:22:39Z</time>
      </trkpt>
      <trkpt lat="46.15818" lon="6.32026">
        <ele>256</ele>
        <time>2020-09-30T08:22:35Z</time>
      </trkpt>
      <trkpt lat="46.1584" lon="6.32014">
        <ele>256</ele>
        <time>2020-09-30T08:22:31Z</time>
      </trkpt>
      <trkpt lat="46.15862" lon="6.32001">
        <ele>255.2</ele>
        <time>2020-09-30T08:22:27Z</time>
      </trkpt>
      <trkpt lat="46.15884" lon="6.31989">
        <ele>255.4</ele>
        <time>2020-09-30T08:22:23Z</time>
      </trkpt>
      <trkpt lat="46.15906" lon="6.31978">
        <ele>255</ele>
        <time>2020-09-30T08:22:19Z</time>
      </trkpt>
      <trkpt lat="46.15929" lon="6.31966">
        <ele>254.8</ele>
        <time>2020-09-30T08:22:15Z</time>
      </trkpt>
      <trkpt lat="46.1595" lon="6.31951">
        <ele>254.8</ele>
        <time>2020-09-30T08:22:11Z</time>
      </trkpt>
      <trkpt lat="46.15967" lon="6.31927">
        <ele>254</ele>
        <time>2020-09-30T08:22:07Z</time>
      </trkpt>
      <trkpt lat="46.15979" lon="6.31899">
        <ele>254</ele>
        <time>2020-09-30T08:22:03Z</time>
      </trkpt>
      <trkpt lat="46.1599" lon="6.31871">
        <ele>254</ele>
        <time>2020-09-30T08:21:59Z</time>
      </trkpt>
      <trkpt lat="46.16" lon="6.31844">
        <ele>253.6</ele>
        <time>2020-09-30T08:21:55Z</time>
      </trkpt>
      <trkpt lat="46.1601" lon="6.31817">
        <ele>253.8</ele>
        <time>2020-09-30T08:21:51Z</time>
      </trkpt>
      <trkpt lat="46.1602" lon="6.31792">
        <ele>253.4</ele>
        <time>2020-09-30T08:21:47Z</time>
      </trkpt>
      <trkpt lat="46.16031" lon="6.31767">
        <ele>252.6</ele>
        <time>2020-09-30T08:21:43Z</time>
      </trkpt>
      <trkpt lat="46.16041" lon="6.31742">
        <ele>252</ele>
        <time>2020-09-30T08:21:39Z</time>
      </trkpt>
      <trkpt lat="46.16053" lon="6.31718">
        <ele>251.2</ele>
        <time>2020-09-30T08:21:35Z</time>
      </trkpt>
      <trkpt lat="46.16067" lon="6.31695">
        <ele>251.6</ele>
        <time>2020-09-30T08:21:31Z</time>
      </trkpt>
      <trkpt lat="46.16083" lon="6.31675">
        <ele>251</ele>
        <time>2020-09-30T08:21:27Z</time>
      </trkpt>
      <trkpt lat="46.161" lon="6.31661">
        <ele>251.2</ele>
        <time>2020-09-30T08:21:23Z</time>
      </trkpt>
      <trkpt lat="46.16118" lon="6.31655">
        <ele>250.2</ele>
        <time>2020-09-30T08:21:19Z</time>
      </trkpt>
      <trkpt lat="46.16133" lon="6.3165">
        <ele>249</ele>
        <time>2020-09-30T08:21:15Z</time>
      </trkpt>
      <trkpt lat="46.16141" lon="6.31623">
        <ele>248.2</ele>
        <time>2020-09-30T08:21:11Z</time>
      </trkpt>
      <trkpt lat="46.16146" lon="6.31593">
        <ele>249</ele>
        <time>2020-09-30T08:21:07Z</time>
      </trkpt>
      <trkpt lat="46.16147" lon="6.31567">
        <ele>249.8</ele>
        <time>2020-09-30T08:21:03Z</time>
      </trkpt>
      <trkpt lat="46.16148" lon="6.31554">
        <ele>251</ele>
        <time>2020-09-30T08:20:59Z</time>
      </trkpt>
      <trkpt lat="46.16149" lon="6.31553">
        <ele>251</ele>
        <time>2020-09-30T08:20:55Z</time>
      </trkpt>
      <trkpt lat="46.16156" lon="6.31539">
        <ele>250.2</ele>
        <time>2020-09-30T08:20:51Z</time>
      </trkpt>
      <trkpt lat="46.1617" lon="6.31508">
        <ele>250.2</ele>
        <time>2020-09-30T08:20:47Z</time>
      </trkpt>
      <trkpt lat="46.16179" lon="6.31471">
        <ele>249.6</ele>
        <time>2020-09-30T08:20:43Z</time>
      </trkpt>
      <trkpt lat="46.16172" lon="6.3143">
        <ele>248</ele>
        <time>2020-09-30T08:20:39Z</time>
      </trkpt>
      <trkpt lat="46.16161" lon="6.31387">
        <ele>247.2</ele>
        <time>2020-09-30T08:20:35Z</time>
      </trkpt>
      <trkpt lat="46.1615" lon="6.31344">
        <ele>249.6</ele>
        <time>2020-09-30T08:20:31Z</time>
      </trkpt>
      <trkpt lat="46.16145" lon="6.31308">
        <ele>253</ele>
        <time>2020-09-30T08:20:27Z</time>
      </trkpt>
      <trkpt lat="46.16153" lon="6.31281">
        <ele>252.8</ele>
        <time>2020-09-30T08:20:23Z</time>
      </trkpt>
      <trkpt lat="46.16164" lon="6.3125">
        <ele>251.4</ele>
        <time>2020-09-30T08:20:19Z</time>
      </trkpt>
      <trkpt lat="46.16174" lon="6.31219">
        <ele>250.6</ele>
        <time>2020-09-30T08:20:15Z</time>
      </trkpt>
      <trkpt lat="46.16187" lon="6.31187">
        <ele>249.2</ele>
        <time>2020-09-30T08:20:11Z</time>
      </trkpt>
      <trkpt lat="46.16204" lon="6.31156">
        <ele>248.6</ele>
        <time>2020-09-30T08:20:07Z</time>
      </trkpt>
      <trkpt lat="46.16224" lon="6.31128">
        <ele>247.8</ele>
        <time>2020-09-30T08:20:03Z</time>
      </trkpt>
      <trkpt lat="46.16245" lon="6.31105">
        <ele>248</ele>
        <time>2020-09-30T08:19:59Z</time>
      </trkpt>
      <trkpt lat="46.16268" lon="6.31084">
        <ele>247</ele>
        <time>2020-09-30T08:19:55Z</time>
      </trkpt>
      <trkpt lat="46.16292" lon="6.3106">
        <ele>246.8</ele>
        <time>2020-09-30T08:19:51Z</time>
      </trkpt>
      <trkpt lat="46.16309" lon="6.31026">
        <ele>246.4</ele>
        <time>2020-09-30T08:19:47Z</time>
      </trkpt>
      <trkpt lat="46.16326" lon="6.30994">
        <ele>247.2</ele>
        <time>2020-09-30T08:19:43Z</time>
      </trkpt>
      <trkpt lat="46.16342" lon="6.30964">
        <ele>247.8</ele>
        <time>2020-09-30T08:19:39Z</time>
      </trkpt>
      <trkpt lat="46.1636" lon="6.30934">
        <ele>247.2</ele>
        <time>2020-09-30T08:19:35Z</time>
      </trkpt>
      <trkpt lat="46.1638" lon="6.30908">
        <ele>247.4</ele>
        <time>2020-09-30T08:19:31Z</time>
      </trkpt>
      <trkpt lat="46.16399" lon="6.30884">
        <ele>248.2</ele>
        <time>2020-09-30T08:19:27Z</time>
      </trkpt>
      <trkpt lat="46.16415" lon="6.30859">
        <ele>248.4</ele>
        <time>2020-09-30T08:19:23Z</time>
      </trkpt>
      <trkpt lat="46.16432" lon="6.30837">
        <ele>247.6</ele>
        <time>2020-09-30T08:19:19Z</time>
      </trkpt>
      <trkpt lat="46.16451" lon="6.30819">
        <ele>247.4</ele>
        <time>2020-09-30T08:19:15Z</time>
      </trkpt>
      <trkpt lat="46.16471" lon="6.30802">
        <ele>246.4</ele>
        <time>2020-09-30T08:19:11Z</time>
      </trkpt>
      <trkpt lat="46.16492" lon="6.30785">
        <ele>246</ele>
        <time>2020-09-30T08:19:07Z</time>
      </trkpt>
      <trkpt lat="46.16514" lon="6.30767">
        <ele>245.6</ele>
        <time>2020-09-30T08:19:03Z</time>
      </trkpt>
      <trkpt lat="46.16535" lon="6.3075">
        <ele>246.2</ele>
        <time>2020-09-30T08:18:59Z</time>
      </trkpt>
      <trkpt lat="46.16555" lon="6.30732">
        <ele>246.2</ele>
        <time>2020-09-30T08:18:55Z</time>
      </trkpt>
      <trkpt lat="46.16572" lon="6.3071">
        <ele>246.4</ele>
        <time>2020-09-30T08:18:51Z</time>
      </trkpt>
      <trkpt lat="46.16588" lon="6.30687">
        <ele>246.2</ele>
        <time>2020-09-30T08:18:47Z</time>
      </trkpt>
      <trkpt lat="46.16602" lon="6.30663">
        <ele>246.8</ele>
        <time>2020-09-30T08:18:43Z</time>
      </trkpt>
      <trkpt lat="46.16615" lon="6.30639">
        <ele>246.4</ele>
        <time>2020-09-30T08:18:39Z</time>
      </trkpt>
      <trkpt lat="46.16624" lon="6.30613">
        <ele>246.2</ele>
        <time>2020-09-30T08:18:35Z</time>
      </trkpt>
      <trkpt lat="46.16629" lon="6.30591">
        <ele>246</ele>
        <time>2020-09-30T08:18:31Z</time>
      </trkpt>
      <trkpt lat="46.16633" lon="6.30567">
        <ele>245.6</ele>
        <time>2020-09-30T08:18:27Z</time>
      </trkpt>
      <trkpt lat="46.16632" lon="6.30545">
        <ele>244.2</ele>
        <time>2020-09-30T08:18:23Z</time>
      </trkpt>
      <trkpt lat="46.16623" lon="6.30518">
        <ele>243.4</ele>
        <time>2020-09-30T08:18:19Z</time>
      </trkpt>
      <trkpt lat="46.16612" lon="6.30501">
        <ele>242.6</ele>
        <time>2020-09-30T08:18:15Z</time>
      </trkpt>
      <trkpt lat="46.16598" lon="6.30492">
        <ele>241.2</ele>
        <time>2020-09-30T08:18:11Z</time>
      </trkpt>
      <trkpt lat="46.16586" lon="6.30481">
        <ele>240</ele>
        <time>2020-09-30T08:18:07Z</time>
      </trkpt>
      <trkpt lat="46.16573" lon="6.30468">
        <ele>238.8</ele>
        <time>2020-09-30T08:18:03Z</time>
      </trkpt>
      <trkpt lat="46.16562" lon="6.30451">
        <ele>238.2</ele>
        <time>2020-09-30T08:17:59Z</time>
      </trkpt>
      <trkpt lat="46.16553" lon="6.30434">
        <ele>236.2</ele>
        <time>2020-09-30T08:17:55Z</time>
      </trkpt>
      <trkpt lat="46.16544" lon="6.30417">
        <ele>235.2</ele>
        <time>2020-09-30T08:17:51Z</time>
      </trkpt>
      <trkpt lat="46.16534" lon="6.30398">
        <ele>233.6</ele>
        <time>2020-09-30T08:17:47Z</time>
      </trkpt>
      <trkpt lat="46.16521" lon="6.30374">
        <ele>233</ele>
        <time>2020-09-30T08:17:43Z</time>
      </trkpt>
      <trkpt lat="46.16506" lon="6.3035">
        <ele>232.6</ele>
        <time>2020-09-30T08:17:39Z</time>
      </trkpt>
      <trkpt lat="46.16493" lon="6.30325">
        <ele>231.6</ele>
        <time>2020-09-30T08:17:35Z</time>
      </trkpt>
      <trkpt lat="46.16479" lon="6.30302">
        <ele>231</ele>
        <time>2020-09-30T08:17:31Z</time>
      </trkpt>
      <trkpt lat="46.16465" lon="6.30277">
        <ele>230.4</ele>
        <time>2020-09-30T08:17:27Z</time>
      </trkpt>
      <trkpt lat="46.16451" lon="6.30252">
        <ele>229.2</ele>
        <time>2020-09-30T08:17:23Z</time>
      </trkpt>
      <trkpt lat="46.16436" lon="6.30227">
        <ele>228.4</ele>
        <time>2020-09-30T08:17:19Z</time>
      </trkpt>
      <trkpt lat="46.16419" lon="6.30201">
        <ele>227.6</ele>
        <time>2020-09-30T08:17:15Z</time>
      </trkpt>
      <trkpt lat="46.16404" lon="6.30176">
        <ele>227.6</ele>
        <time>2020-09-30T08:17:11Z</time>
      </trkpt>
      <trkpt lat="46.16389" lon="6.3015">
        <ele>227.6</ele>
        <time>2020-09-30T08:17:07Z</time>
      </trkpt>
      <trkpt lat="46.16374" lon="6.30126">
        <ele>227.6</ele>
        <time>2020-09-30T08:17:03Z</time>
      </trkpt>
      <trkpt lat="46.16359" lon="6.30101">
        <ele>226.4</ele>
        <time>2020-09-30T08:16:59Z</time>
      </trkpt>
      <trkpt lat="46.16342" lon="6.30075">
        <ele>225.4</ele>
        <time>2020-09-30T08:16:55Z</time>
      </trkpt>
      <trkpt lat="46.16327" lon="6.30049">
        <ele>224.8</ele>
        <time>2020-09-30T08:16:51Z</time>
      </trkpt>
      <trkpt lat="46.16312" lon="6.30023">
        <ele>224.4</ele>
        <time>2020-09-30T08:16:47Z</time>
      </trkpt>
      <trkpt lat="46.16296" lon="6.29996">
        <ele>223.8</ele>
        <time>2020-09-30T08:16:43Z</time>
      </trkpt>
      <trkpt lat="46.16283" lon="6.29968">
        <ele>223</ele>
        <time>2020-09-30T08:16:39Z</time>
      </trkpt>
      <trkpt lat="46.1627" lon="6.2994">
        <ele>222.6</ele>
        <time>2020-09-30T08:16:35Z</time>
      </trkpt>
      <trkpt lat="46.16259" lon="6.2991">
        <ele>221.8</ele>
        <time>2020-09-30T08:16:31Z</time>
      </trkpt>
      <trkpt lat="46.16249" lon="6.29876">
        <ele>221.2</ele>
        <time>2020-09-30T08:16:27Z</time>
      </trkpt>
      <trkpt lat="46.16241" lon="6.29841">
        <ele>222</ele>
        <time>2020-09-30T08:16:23Z</time>
      </trkpt>
      <trkpt lat="46.16232" lon="6.29806">
        <ele>220.8</ele>
        <time>2020-09-30T08:16:19Z</time>
      </trkpt>
      <trkpt lat="46.16223" lon="6.29771">
        <ele>220.6</ele>
        <time>2020-09-30T08:16:15Z</time>
      </trkpt>
      <trkpt lat="46.16215" lon="6.29733">
        <ele>220.8</ele>
        <time>2020-09-30T08:16:11Z</time>
      </trkpt>
      <trkpt lat="46.1621" lon="6.29696">
        <ele>221</ele>
        <time>2020-09-30T08:16:07Z</time>
      </trkpt>
      <trkpt lat="46.16211" lon="6.29663">
        <ele>220.6</ele>
        <time>2020-09-30T08:16:03Z</time>
      </trkpt>
      <trkpt lat="46.16216" lon="6.29629">
        <ele>220.2</ele>
        <time>2020-09-30T08:15:59Z</time>
      </trkpt>
      <trkpt lat="46.16218" lon="6.29595">
        <ele>219.4</ele>
        <time>2020-09-30T08:15:55Z</time>
      </trkpt>
      <trkpt lat="46.16219" lon="6.29559">
        <ele>219.2</ele>
        <time>2020-09-30T08:15:51Z</time>
      </trkpt>
      <trkpt lat="46.16217" lon="6.29522">
        <ele>219.2</ele>
        <time>2020-09-30T08:15:47Z</time>
      </trkpt>
      <trkpt lat="46.16214" lon="6.29486">
        <ele>219.4</ele>
        <time>2020-09-30T08:15:43Z</time>
      </trkpt>
      <trkpt lat="46.16212" lon="6.29454">
        <ele>219</ele>
        <time>2020-09-30T08:15:39Z</time>
      </trkpt>
      <trkpt lat="46.1621" lon="6.29423">
        <ele>218.2</ele>
        <time>2020-09-30T08:15:35Z</time>
      </trkpt>
      <trkpt lat="46.16204" lon="6.29393">
        <ele>218</ele>
        <time>2020-09-30T08:15:31Z</time>
      </trkpt>
      <trkpt lat="46.16197" lon="6.29363">
        <ele>217</ele>
        <time>2020-09-30T08:15:27Z</time>
      </trkpt>
      <trkpt lat="46.16189" lon="6.29333">
        <ele>216.6</ele>
        <time>2020-09-30T08:15:23Z</time>
      </trkpt>
      <trkpt lat="46.16181" lon="6.29304">
        <ele>216.4</ele>
        <time>2020-09-30T08:15:19Z</time>
      </trkpt>
      <trkpt lat="46.16173" lon="6.29276">
        <ele>214.8</ele>
        <time>2020-09-30T08:15:15Z</time>
      </trkpt>
      <trkpt lat="46.16165" lon="6.29246">
        <ele>214.8</ele>
        <time>2020-09-30T08:15:11Z</time>
      </trkpt>
      <trkpt lat="46.16157" lon="6.29218">
        <ele>213</ele>
        <time>2020-09-30T08:15:07Z</time>
      </trkpt>
      <trkpt lat="46.1615" lon="6.29187">
        <ele>212.8</ele>
        <time>2020-09-30T08:15:03Z</time>
      </trkpt>
      <trkpt lat="46.16143" lon="6.29156">
        <ele>211.8</ele>
        <time>2020-09-30T08:14:59Z</time>
      </trkpt>
      <trkpt lat="46.16134" lon="6.29126">
        <ele>211.8</ele>
        <time>2020-09-30T08:14:55Z</time>
      </trkpt>
      <trkpt lat="46.16127" lon="6.29096">
        <ele>211.2</ele>
        <time>2020-09-30T08:14:51Z</time>
      </trkpt>
      <trkpt lat="46.16119" lon="6.29067">
        <ele>210.2</ele>
        <time>2020-09-30T08:14:47Z</time>
      </trkpt>
      <trkpt lat="46.16111" lon="6.29036">
        <ele>209.2</ele>
        <time>2020-09-30T08:14:43Z</time>
      </trkpt>
      <trkpt lat="46.16104" lon="6.29005">
        <ele>207.8</ele>
        <time>2020-09-30T08:14:39Z</time>
      </trkpt>
      <trkpt lat="46.16093" lon="6.28973">
        <ele>207.8</ele>
        <time>2020-09-30T08:14:35Z</time>
      </trkpt>
      <trkpt lat="46.16083" lon="6.28939">
        <ele>207.6</ele>
        <time>2020-09-30T08:14:31Z</time>
      </trkpt>
      <trkpt lat="46.16074" lon="6.28905">
        <ele>207.4</ele>
        <time>2020-09-30T08:14:27Z</time>
      </trkpt>
      <trkpt lat="46.16065" lon="6.28872">
        <ele>208</ele>
        <time>2020-09-30T08:14:23Z</time>
      </trkpt>
      <trkpt lat="46.16055" lon="6.28841">
        <ele>208</ele>
        <time>2020-09-30T08:14:19Z</time>
      </trkpt>
      <trkpt lat="46.16043" lon="6.28812">
        <ele>209</ele>
        <time>2020-09-30T08:14:15Z</time>
      </trkpt>
      <trkpt lat="46.16032" lon="6.28785">
        <ele>209</ele>
        <time>2020-09-30T08:14:11Z</time>
      </trkpt>
      <trkpt lat="46.16021" lon="6.2876">
        <ele>208.4</ele>
        <time>2020-09-30T08:14:07Z</time>
      </trkpt>
      <trkpt lat="46.16008" lon="6.28737">
        <ele>207.8</ele>
        <time>2020-09-30T08:14:03Z</time>
      </trkpt>
      <trkpt lat="46.15996" lon="6.28715">
        <ele>206.4</ele>
        <time>2020-09-30T08:13:59Z</time>
      </trkpt>
      <trkpt lat="46.15983" lon="6.28694">
        <ele>206.2</ele>
        <time>2020-09-30T08:13:55Z</time>
      </trkpt>
      <trkpt lat="46.1597" lon="6.28672">
        <ele>205.4</ele>
        <time>2020-09-30T08:13:51Z</time>
      </trkpt>
      <trkpt lat="46.15957" lon="6.28648">
        <ele>203.6</ele>
        <time>2020-09-30T08:13:47Z</time>
      </trkpt>
      <trkpt lat="46.15942" lon="6.28622">
        <ele>200.6</ele>
        <time>2020-09-30T08:13:43Z</time>
      </trkpt>
      <trkpt lat="46.15921" lon="6.28593">
        <ele>199.6</ele>
        <time>2020-09-30T08:13:39Z</time>
      </trkpt>
      <trkpt lat="46.15899" lon="6.28564">
        <ele>198.8</ele>
        <time>2020-09-30T08:13:35Z</time>
      </trkpt>
      <trkpt lat="46.15873" lon="6.28539">
        <ele>198.6</ele>
        <time>2020-09-30T08:13:31Z</time>
      </trkpt>
      <trkpt lat="46.1587" lon="6.28493">
        <ele>198.6</ele>
        <time>2020-09-30T08:13:27Z</time>
      </trkpt>
      <trkpt lat="46.1588" lon="6.28446">
        <ele>199.8</ele>
        <time>2020-09-30T08:13:23Z</time>
      </trkpt>
      <trkpt lat="46.15896" lon="6.28401">
        <ele>201.2</ele>
        <time>2020-09-30T08:13:19Z</time>
      </trkpt>
      <trkpt lat="46.15914" lon="6.28361">
        <ele>201.4</ele>
        <time>2020-09-30T08:13:15Z</time>
      </trkpt>
      <trkpt lat="46.15935" lon="6.28321">
        <ele>201.4</ele>
        <time>2020-09-30T08:13:11Z</time>
      </trkpt>
      <trkpt lat="46.15955" lon="6.28282">
        <ele>202</ele>
        <time>2020-09-30T08:13:07Z</time>
      </trkpt>
      <trkpt lat="46.15975" lon="6.28243">
        <ele>202.8</ele>
        <time>2020-09-30T08:13:03Z</time>
      </trkpt>
      <trkpt lat="46.15995" lon="6.28203">
        <ele>203.6</ele>
        <time>2020-09-30T08:12:59Z</time>
      </trkpt>
      <trkpt lat="46.1601" lon="6.28162">
        <ele>204.4</ele>
        <time>2020-09-30T08:12:55Z</time>
      </trkpt>
      <trkpt lat="46.16026" lon="6.28121">
        <ele>204</ele>
        <time>2020-09-30T08:12:51Z</time>
      </trkpt>
      <trkpt lat="46.16041" lon="6.28079">
        <ele>205.4</ele>
        <time>2020-09-30T08:12:47Z</time>
      </trkpt>
      <trkpt lat="46.16057" lon="6.28039">
        <ele>204.6</ele>
        <time>2020-09-30T08:12:43Z</time>
      </trkpt>
      <trkpt lat="46.16072" lon="6.27999">
        <ele>204.8</ele>
        <time>2020-09-30T08:12:39Z</time>
      </trkpt>
      <trkpt lat="46.16087" lon="6.27959">
        <ele>204.2</ele>
        <time>2020-09-30T08:12:35Z</time>
      </trkpt>
      <trkpt lat="46.16102" lon="6.27919">
        <ele>203.8</ele>
        <time>2020-09-30T08:12:31Z</time>
      </trkpt>
      <trkpt lat="46.16117" lon="6.2788">
        <ele>204.4</ele>
        <time>2020-09-30T08:12:27Z</time>
      </trkpt>
      <trkpt lat="46.16131" lon="6.27841">
        <ele>204.8</ele>
        <time>2020-09-30T08:12:23Z</time>
      </trkpt>
      <trkpt lat="46.16146" lon="6.27803">
        <ele>205.2</ele>
        <time>2020-09-30T08:12:19Z</time>
      </trkpt>
      <trkpt lat="46.1616" lon="6.27765">
        <ele>205</ele>
        <time>2020-09-30T08:12:15Z</time>
      </trkpt>
      <trkpt lat="46.16175" lon="6.27727">
        <ele>205.2</ele>
        <time>2020-09-30T08:12:11Z</time>
      </trkpt>
      <trkpt lat="46.16189" lon="6.27689">
        <ele>205.4</ele>
        <time>2020-09-30T08:12:07Z</time>
      </trkpt>
      <trkpt lat="46.16202" lon="6.27651">
        <ele>205.8</ele>
        <time>2020-09-30T08:12:03Z</time>
      </trkpt>
      <trkpt lat="46.16208" lon="6.27612">
        <ele>206.2</ele>
        <time>2020-09-30T08:11:59Z</time>
      </trkpt>
      <trkpt lat="46.16227" lon="6.27584">
        <ele>207.2</ele>
        <time>2020-09-30T08:11:55Z</time>
      </trkpt>
      <trkpt lat="46.16242" lon="6.27554">
        <ele>207.8</ele>
        <time>2020-09-30T08:11:51Z</time>
      </trkpt>
      <trkpt lat="46.16256" lon="6.27518">
        <ele>207.8</ele>
        <time>2020-09-30T08:11:47Z</time>
      </trkpt>
      <trkpt lat="46.1627" lon="6.27483">
        <ele>207.8</ele>
        <time>2020-09-30T08:11:43Z</time>
      </trkpt>
      <trkpt lat="46.16282" lon="6.27449">
        <ele>208.8</ele>
        <time>2020-09-30T08:11:39Z</time>
      </trkpt>
      <trkpt lat="46.16294" lon="6.27418">
        <ele>208.6</ele>
        <time>2020-09-30T08:11:35Z</time>
      </trkpt>
      <trkpt lat="46.16307" lon="6.27384">
        <ele>208.4</ele>
        <time>2020-09-30T08:11:31Z</time>
      </trkpt>
      <trkpt lat="46.1632" lon="6.2735">
        <ele>208.4</ele>
        <time>2020-09-30T08:11:27Z</time>
      </trkpt>
      <trkpt lat="46.16331" lon="6.27317">
        <ele>209</ele>
        <time>2020-09-30T08:11:23Z</time>
      </trkpt>
      <trkpt lat="46.16343" lon="6.27289">
        <ele>209</ele>
        <time>2020-09-30T08:11:19Z</time>
      </trkpt>
      <trkpt lat="46.16355" lon="6.27265">
        <ele>208.6</ele>
        <time>2020-09-30T08:11:15Z</time>
      </trkpt>
      <trkpt lat="46.1637" lon="6.27246">
        <ele>208.2</ele>
        <time>2020-09-30T08:11:11Z</time>
      </trkpt>
      <trkpt lat="46.16387" lon="6.27233">
        <ele>206.2</ele>
        <time>2020-09-30T08:11:07Z</time>
      </trkpt>
      <trkpt lat="46.16406" lon="6.27225">
        <ele>205</ele>
        <time>2020-09-30T08:11:03Z</time>
      </trkpt>
      <trkpt lat="46.16425" lon="6.27222">
        <ele>205.4</ele>
        <time>2020-09-30T08:10:59Z</time>
      </trkpt>
      <trkpt lat="46.16444" lon="6.27227">
        <ele>203.8</ele>
        <time>2020-09-30T08:10:55Z</time>
      </trkpt>
      <trkpt lat="46.16463" lon="6.27234">
        <ele>203.2</ele>
        <time>2020-09-30T08:10:51Z</time>
      </trkpt>
      <trkpt lat="46.16483" lon="6.2724">
        <ele>202.4</ele>
        <time>2020-09-30T08:10:47Z</time>
      </trkpt>
      <trkpt lat="46.16501" lon="6.27248">
        <ele>201.4</ele>
        <time>2020-09-30T08:10:43Z</time>
      </trkpt>
      <trkpt lat="46.16519" lon="6.27255">
        <ele>200.4</ele>
        <time>2020-09-30T08:10:39Z</time>
      </trkpt>
      <trkpt lat="46.16537" lon="6.27262">
        <ele>200.2</ele>
        <time>2020-09-30T08:10:35Z</time>
      </trkpt>
      <trkpt lat="46.16555" lon="6.27269">
        <ele>199.4</ele>
        <time>2020-09-30T08:10:31Z</time>
      </trkpt>
      <trkpt lat="46.16573" lon="6.27278">
        <ele>198.6</ele>
        <time>2020-09-30T08:10:27Z</time>
      </trkpt>
      <trkpt lat="46.16589" lon="6.27293">
        <ele>197.4</ele>
        <time>2020-09-30T08:10:23Z</time>
      </trkpt>
      <trkpt lat="46.16604" lon="6.27311">
        <ele>196.2</ele>
        <time>2020-09-30T08:10:19Z</time>
      </trkpt>
      <trkpt lat="46.1662" lon="6.27325">
        <ele>195.4</ele>
        <time>2020-09-30T08:10:15Z</time>
      </trkpt>
      <trkpt lat="46.16638" lon="6.27334">
        <ele>194.4</ele>
        <time>2020-09-30T08:10:11Z</time>
      </trkpt>
      <trkpt lat="46.16657" lon="6.27341">
        <ele>193.2</ele>
        <time>2020-09-30T08:10:07Z</time>
      </trkpt>
      <trkpt lat="46.16676" lon="6.27346">
        <ele>192.8</ele>
        <time>2020-09-30T08:10:03Z</time>
      </trkpt>
      <trkpt lat="46.16698" lon="6.27351">
        <ele>191.4</ele>
        <time>2020-09-30T08:09:59Z</time>
      </trkpt>
      <trkpt lat="46.16719" lon="6.27356">
        <ele>190.8</ele>
        <time>2020-09-30T08:09:55Z</time>
      </trkpt>
      <trkpt lat="46.16739" lon="6.2736">
        <ele>189.6</ele>
        <time>2020-09-30T08:09:51Z</time>
      </trkpt>
      <trkpt lat="46.16761" lon="6.27363">
        <ele>189</ele>
        <time>2020-09-30T08:09:47Z</time>
      </trkpt>
      <trkpt lat="46.16783" lon="6.27364">
        <ele>187.6</ele>
        <time>2020-09-30T08:09:43Z</time>
      </trkpt>
      <trkpt lat="46.16805" lon="6.27355">
        <ele>187</ele>
        <time>2020-09-30T08:09:39Z</time>
      </trkpt>
      <trkpt lat="46.16824" lon="6.27332">
        <ele>185</ele>
        <time>2020-09-30T08:09:35Z</time>
      </trkpt>
      <trkpt lat="46.16836" lon="6.27298">
        <ele>183.8</ele>
        <time>2020-09-30T08:09:31Z</time>
      </trkpt>
      <trkpt lat="46.16841" lon="6.2726">
        <ele>183.8</ele>
        <time>2020-09-30T08:09:27Z</time>
      </trkpt>
      <trkpt lat="46.16847" lon="6.27223">
        <ele>183.8</ele>
        <time>2020-09-30T08:09:23Z</time>
      </trkpt>
      <trkpt lat="46.16852" lon="6.27185">
        <ele>184</ele>
        <time>2020-09-30T08:09:19Z</time>
      </trkpt>
      <trkpt lat="46.16847" lon="6.27151">
        <ele>184.6</ele>
        <time>2020-09-30T08:09:15Z</time>
      </trkpt>
      <trkpt lat="46.16827" lon="6.27135">
        <ele>184.2</ele>
        <time>2020-09-30T08:09:11Z</time>
      </trkpt>
      <trkpt lat="46.1681" lon="6.27123">
        <ele>184.4</ele>
        <time>2020-09-30T08:09:07Z</time>
      </trkpt>
      <trkpt lat="46.16787" lon="6.27117">
        <ele>183</ele>
        <time>2020-09-30T08:09:03Z</time>
      </trkpt>
      <trkpt lat="46.16754" lon="6.27086">
        <ele>182.2</ele>
        <time>2020-09-30T08:08:59Z</time>
      </trkpt>
      <trkpt lat="46.16722" lon="6.27038">
        <ele>187.6</ele>
        <time>2020-09-30T08:08:55Z</time>
      </trkpt>
      <trkpt lat="46.16732" lon="6.26981">
        <ele>191.4</ele>
        <time>2020-09-30T08:08:51Z</time>
      </trkpt>
      <trkpt lat="46.16766" lon="6.26943">
        <ele>194</ele>
        <time>2020-09-30T08:08:47Z</time>
      </trkpt>
      <trkpt lat="46.16802" lon="6.26914">
        <ele>198.6</ele>
        <time>2020-09-30T08:08:43Z</time>
      </trkpt>
      <trkpt lat="46.16839" lon="6.26892">
        <ele>201.8</ele>
        <time>2020-09-30T08:08:39Z</time>
      </trkpt>
      <trkpt lat="46.16868" lon="6.2686">
        <ele>205.2</ele>
        <time>2020-09-30T08:08:35Z</time>
      </trkpt>
      <trkpt lat="46.16891" lon="6.26819">
        <ele>206.8</ele>
        <time>2020-09-30T08:08:31Z</time>
      </trkpt>
      <trkpt lat="46.16903" lon="6.26773">
        <ele>208.4</ele>
        <time>2020-09-30T08:08:27Z</time>
      </trkpt>
      <trkpt lat="46.16905" lon="6.26725">
        <ele>208.8</ele>
        <time>2020-09-30T08:08:23Z</time>
      </trkpt>
      <trkpt lat="46.16917" lon="6.26683">
        <ele>208.4</ele>
        <time>2020-09-30T08:08:19Z</time>
      </trkpt>
      <trkpt lat="46.16937" lon="6.26647">
        <ele>208.8</ele>
        <time>2020-09-30T08:08:15Z</time>
      </trkpt>
      <trkpt lat="46.16959" lon="6.2661">
        <ele>209.2</ele>
        <time>2020-09-30T08:08:11Z</time>
      </trkpt>
      <trkpt lat="46.16984" lon="6.26569">
        <ele>209.2</ele>
        <time>2020-09-30T08:08:07Z</time>
      </trkpt>
      <trkpt lat="46.17009" lon="6.26528">
        <ele>212</ele>
        <time>2020-09-30T08:08:03Z</time>
      </trkpt>
      <trkpt lat="46.17031" lon="6.26491">
        <ele>217</ele>
        <time>2020-09-30T08:07:59Z</time>
      </trkpt>
      <trkpt lat="46.1705" lon="6.2646">
        <ele>219.2</ele>
        <time>2020-09-30T08:07:55Z</time>
      </trkpt>
      <trkpt lat="46.17066" lon="6.26434">
        <ele>221.8</ele>
        <time>2020-09-30T08:07:51Z</time>
      </trkpt>
      <trkpt lat="46.1708" lon="6.2641">
        <ele>222.8</ele>
        <time>2020-09-30T08:07:47Z</time>
      </trkpt>
      <trkpt lat="46.17091" lon="6.26391">
        <ele>223.6</ele>
        <time>2020-09-30T08:07:43Z</time>
      </trkpt>
      <trkpt lat="46.17105" lon="6.26368">
        <ele>222.8</ele>
        <time>2020-09-30T08:07:39Z</time>
      </trkpt>
      <trkpt lat="46.17121" lon="6.26341">
        <ele>223.4</ele>
        <time>2020-09-30T08:07:35Z</time>
      </trkpt>
      <trkpt lat="46.17137" lon="6.26312">
        <ele>224.2</ele>
        <time>2020-09-30T08:07:31Z</time>
      </trkpt>
      <trkpt lat="46.17153" lon="6.26285">
        <ele>224.6</ele>
        <time>2020-09-30T08:07:27Z</time>
      </trkpt>
      <trkpt lat="46.17169" lon="6.2626">
        <ele>224.8</ele>
        <time>2020-09-30T08:07:23Z</time>
      </trkpt>
      <trkpt lat="46.17185" lon="6.26235">
        <ele>225.4</ele>
        <time>2020-09-30T08:07:19Z</time>
      </trkpt>
      <trkpt lat="46.17201" lon="6.2621">
        <ele>224.8</ele>
        <time>2020-09-30T08:07:15Z</time>
      </trkpt>
      <trkpt lat="46.17217" lon="6.26185">
        <ele>225.6</ele>
        <time>2020-09-30T08:07:11Z</time>
      </trkpt>
      <trkpt lat="46.17231" lon="6.26161">
        <ele>225.6</ele>
        <time>2020-09-30T08:07:07Z</time>
      </trkpt>
      <trkpt lat="46.17245" lon="6.26136">
        <ele>225</ele>
        <time>2020-09-30T08:07:03Z</time>
      </trkpt>
      <trkpt lat="46.17257" lon="6.26114">
        <ele>225.2</ele>
        <time>2020-09-30T08:06:59Z</time>
      </trkpt>
      <trkpt lat="46.17267" lon="6.26091">
        <ele>222.8</ele>
        <time>2020-09-30T08:06:55Z</time>
      </trkpt>
      <trkpt lat="46.17278" lon="6.26069">
        <ele>221.6</ele>
        <time>2020-09-30T08:06:51Z</time>
      </trkpt>
      <trkpt lat="46.17292" lon="6.26048">
        <ele>219.4</ele>
        <time>2020-09-30T08:06:47Z</time>
      </trkpt>
      <trkpt lat="46.17305" lon="6.2602">
        <ele>218</ele>
        <time>2020-09-30T08:06:43Z</time>
      </trkpt>
      <trkpt lat="46.1732" lon="6.2599">
        <ele>217.6</ele>
        <time>2020-09-30T08:06:39Z</time>
      </trkpt>
      <trkpt lat="46.17337" lon="6.25959">
        <ele>218.6</ele>
        <time>2020-09-30T08:06:35Z</time>
      </trkpt>
      <trkpt lat="46.1735" lon="6.25924">
        <ele>219.4</ele>
        <time>2020-09-30T08:06:31Z</time>
      </trkpt>
      <trkpt lat="46.17363" lon="6.25889">
        <ele>217.6</ele>
        <time>2020-09-30T08:06:27Z</time>
      </trkpt>
      <trkpt lat="46.17382" lon="6.25862">
        <ele>220.8</ele>
        <time>2020-09-30T08:06:23Z</time>
      </trkpt>
      <trkpt lat="46.17401" lon="6.25841">
        <ele>222.4</ele>
        <time>2020-09-30T08:06:19Z</time>
      </trkpt>
      <trkpt lat="46.17413" lon="6.2582">
        <ele>224.4</ele>
        <time>2020-09-30T08:06:15Z</time>
      </trkpt>
      <trkpt lat="46.17416" lon="6.25797">
        <ele>223.6</ele>
        <time>2020-09-30T08:06:11Z</time>
      </trkpt>
      <trkpt lat="46.17419" lon="6.25783">
        <ele>224</ele>
        <time>2020-09-30T08:06:07Z</time>
      </trkpt>
      <trkpt lat="46.17421" lon="6.25781">
        <ele>224.2</ele>
        <time>2020-09-30T08:06:03Z</time>
      </trkpt>
      <trkpt lat="46.17431" lon="6.25775">
        <ele>224.2</ele>
        <time>2020-09-30T08:05:59Z</time>
      </trkpt>
      <trkpt lat="46.17443" lon="6.25758">
        <ele>223.8</ele>
        <time>2020-09-30T08:05:55Z</time>
      </trkpt>
      <trkpt lat="46.17456" lon="6.25745">
        <ele>222.4</ele>
        <time>2020-09-30T08:05:51Z</time>
      </trkpt>
      <trkpt lat="46.17471" lon="6.25732">
        <ele>221</ele>
        <time>2020-09-30T08:05:47Z</time>
      </trkpt>
      <trkpt lat="46.17486" lon="6.2572">
        <ele>220</ele>
        <time>2020-09-30T08:05:43Z</time>
      </trkpt>
      <trkpt lat="46.17501" lon="6.25708">
        <ele>219.2</ele>
        <time>2020-09-30T08:05:39Z</time>
      </trkpt>
      <trkpt lat="46.17516" lon="6.25694">
        <ele>217.8</ele>
        <time>2020-09-30T08:05:35Z</time>
      </trkpt>
      <trkpt lat="46.17531" lon="6.25681">
        <ele>217</ele>
        <time>2020-09-30T08:05:31Z</time>
      </trkpt>
      <trkpt lat="46.17548" lon="6.25666">
        <ele>215.2</ele>
        <time>2020-09-30T08:05:27Z</time>
      </trkpt>
      <trkpt lat="46.17566" lon="6.25653">
        <ele>214.2</ele>
        <time>2020-09-30T08:05:23Z</time>
      </trkpt>
      <trkpt lat="46.17586" lon="6.25642">
        <ele>213.8</ele>
        <time>2020-09-30T08:05:19Z</time>
      </trkpt>
      <trkpt lat="46.17607" lon="6.25632">
        <ele>213</ele>
        <time>2020-09-30T08:05:15Z</time>
      </trkpt>
      <trkpt lat="46.17628" lon="6.25621">
        <ele>212.6</ele>
        <time>2020-09-30T08:05:11Z</time>
      </trkpt>
      <trkpt lat="46.17648" lon="6.2561">
        <ele>212</ele>
        <time>2020-09-30T08:05:07Z</time>
      </trkpt>
      <trkpt lat="46.1767" lon="6.25598">
        <ele>211.2</ele>
        <time>2020-09-30T08:05:03Z</time>
      </trkpt>
      <trkpt lat="46.17693" lon="6.25587">
        <ele>210</ele>
        <time>2020-09-30T08:04:59Z</time>
      </trkpt>
      <trkpt lat="46.17716" lon="6.25575">
        <ele>208.8</ele>
        <time>2020-09-30T08:04:55Z</time>
      </trkpt>
      <trkpt lat="46.17741" lon="6.25561">
        <ele>209</ele>
        <time>2020-09-30T08:04:51Z</time>
      </trkpt>
      <trkpt lat="46.17769" lon="6.2555">
        <ele>207.8</ele>
        <time>2020-09-30T08:04:47Z</time>
      </trkpt>
      <trkpt lat="46.17801" lon="6.25546">
        <ele>207.2</ele>
        <time>2020-09-30T08:04:43Z</time>
      </trkpt>
      <trkpt lat="46.17834" lon="6.25544">
        <ele>207</ele>
        <time>2020-09-30T08:04:39Z</time>
      </trkpt>
      <trkpt lat="46.17867" lon="6.25551">
        <ele>209.2</ele>
        <time>2020-09-30T08:04:35Z</time>
      </trkpt>
      <trkpt lat="46.17897" lon="6.25551">
        <ele>211.8</ele>
        <time>2020-09-30T08:04:31Z</time>
      </trkpt>
      <trkpt lat="46.17922" lon="6.25547">
        <ele>213.6</ele>
        <time>2020-09-30T08:04:27Z</time>
      </trkpt>
      <trkpt lat="46.17946" lon="6.25541">
        <ele>215.8</ele>
        <time>2020-09-30T08:04:23Z</time>
      </trkpt>
      <trkpt lat="46.17966" lon="6.25534">
        <ele>216.4</ele>
        <time>2020-09-30T08:04:19Z</time>
      </trkpt>
      <trkpt lat="46.17985" lon="6.25524">
        <ele>216.8</ele>
        <time>2020-09-30T08:04:15Z</time>
      </trkpt>
      <trkpt lat="46.18003" lon="6.25512">
        <ele>216.6</ele>
        <time>2020-09-30T08:04:11Z</time>
      </trkpt>
      <trkpt lat="46.18018" lon="6.25498">
        <ele>216.4</ele>
        <time>2020-09-30T08:04:07Z</time>
      </trkpt>
      <trkpt lat="46.18032" lon="6.25482">
        <ele>215.4</ele>
        <time>2020-09-30T08:04:03Z</time>
      </trkpt>
      <trkpt lat="46.18046" lon="6.25465">
        <ele>215</ele>
        <time>2020-09-30T08:03:59Z</time>
      </trkpt>
      <trkpt lat="46.18058" lon="6.25447">
        <ele>213.6</ele>
        <time>2020-09-30T08:03:55Z</time>
      </trkpt>
      <trkpt lat="46.18071" lon="6.25429">
        <ele>212.4</ele>
        <time>2020-09-30T08:03:51Z</time>
      </trkpt>
      <trkpt lat="46.18086" lon="6.25413">
        <ele>211</ele>
        <time>2020-09-30T08:03:47Z</time>
      </trkpt>
      <trkpt lat="46.18104" lon="6.25401">
        <ele>210.2</ele>
        <time>2020-09-30T08:03:43Z</time>
      </trkpt>
      <trkpt lat="46.18122" lon="6.25389">
        <ele>209.4</ele>
        <time>2020-09-30T08:03:39Z</time>
      </trkpt>
      <trkpt lat="46.1814" lon="6.25378">
        <ele>209.4</ele>
        <time>2020-09-30T08:03:35Z</time>
      </trkpt>
      <trkpt lat="46.18159" lon="6.25367">
        <ele>209.6</ele>
        <time>2020-09-30T08:03:31Z</time>
      </trkpt>
      <trkpt lat="46.18176" lon="6.25355">
        <ele>208.4</ele>
        <time>2020-09-30T08:03:27Z</time>
      </trkpt>
      <trkpt lat="46.18193" lon="6.25343">
        <ele>208.2</ele>
        <time>2020-09-30T08:03:23Z</time>
      </trkpt>
      <trkpt lat="46.18211" lon="6.25331">
        <ele>208.2</ele>
        <time>2020-09-30T08:03:19Z</time>
      </trkpt>
      <trkpt lat="46.18228" lon="6.25321">
        <ele>208.4</ele>
        <time>2020-09-30T08:03:15Z</time>
      </trkpt>
      <trkpt lat="46.18245" lon="6.25309">
        <ele>207.4</ele>
        <time>2020-09-30T08:03:11Z</time>
      </trkpt>
      <trkpt lat="46.18261" lon="6.25299">
        <ele>207.4</ele>
        <time>2020-09-30T08:03:07Z</time>
      </trkpt>
      <trkpt lat="46.18276" lon="6.25288">
        <ele>206.6</ele>
        <time>2020-09-30T08:03:03Z</time>
      </trkpt>
      <trkpt lat="46.18293" lon="6.25278">
        <ele>205.4</ele>
        <time>2020-09-30T08:02:59Z</time>
      </trkpt>
      <trkpt lat="46.18309" lon="6.25267">
        <ele>205.2</ele>
        <time>2020-09-30T08:02:55Z</time>
      </trkpt>
      <trkpt lat="46.18325" lon="6.25258">
        <ele>204.4</ele>
        <time>2020-09-30T08:02:51Z</time>
      </trkpt>
      <trkpt lat="46.18343" lon="6.25247">
        <ele>203.4</ele>
        <time>2020-09-30T08:02:47Z</time>
      </trkpt>
      <trkpt lat="46.18359" lon="6.25236">
        <ele>203</ele>
        <time>2020-09-30T08:02:43Z</time>
      </trkpt>
      <trkpt lat="46.18375" lon="6.25225">
        <ele>202</ele>
        <time>2020-09-30T08:02:39Z</time>
      </trkpt>
      <trkpt lat="46.18392" lon="6.25214">
        <ele>200.8</ele>
        <time>2020-09-30T08:02:35Z</time>
      </trkpt>
      <trkpt lat="46.1841" lon="6.25203">
        <ele>200.2</ele>
        <time>2020-09-30T08:02:31Z</time>
      </trkpt>
      <trkpt lat="46.18428" lon="6.25194">
        <ele>200.2</ele>
        <time>2020-09-30T08:02:27Z</time>
      </trkpt>
      <trkpt lat="46.18447" lon="6.25187">
        <ele>199.6</ele>
        <time>2020-09-30T08:02:23Z</time>
      </trkpt>
      <trkpt lat="46.18465" lon="6.25181">
        <ele>199.6</ele>
        <time>2020-09-30T08:02:19Z</time>
      </trkpt>
      <trkpt lat="46.18484" lon="6.25176">
        <ele>198.8</ele>
        <time>2020-09-30T08:02:15Z</time>
      </trkpt>
      <trkpt lat="46.18502" lon="6.25171">
        <ele>198.6</ele>
        <time>2020-09-30T08:02:11Z</time>
      </trkpt>
      <trkpt lat="46.18521" lon="6.25167">
        <ele>197.6</ele>
        <time>2020-09-30T08:02:07Z</time>
      </trkpt>
      <trkpt lat="46.18539" lon="6.25163">
        <ele>197.6</ele>
        <time>2020-09-30T08:02:03Z</time>
      </trkpt>
      <trkpt lat="46.18557" lon="6.25158">
        <ele>196.6</ele>
        <time>2020-09-30T08:01:59Z</time>
      </trkpt>
      <trkpt lat="46.18575" lon="6.25152">
        <ele>196.4</ele>
        <time>2020-09-30T08:01:55Z</time>
      </trkpt>
      <trkpt lat="46.18593" lon="6.2515">
        <ele>196.4</ele>
        <time>2020-09-30T08:01:51Z</time>
      </trkpt>
      <trkpt lat="46.18611" lon="6.25145">
        <ele>195.6</ele>
        <time>2020-09-30T08:01:47Z</time>
      </trkpt>
      <trkpt lat="46.18629" lon="6.25137">
        <ele>195.8</ele>
        <time>2020-09-30T08:01:43Z</time>
      </trkpt>
      <trkpt lat="46.18648" lon="6.25129">
        <ele>194.6</ele>
        <time>2020-09-30T08:01:39Z</time>
      </trkpt>
      <trkpt lat="46.18668" lon="6.25122">
        <ele>194.4</ele>
        <time>2020-09-30T08:01:35Z</time>
      </trkpt>
      <trkpt lat="46.18687" lon="6.25114">
        <ele>193.8</ele>
        <time>2020-09-30T08:01:31Z</time>
      </trkpt>
      <trkpt lat="46.18705" lon="6.25106">
        <ele>193.6</ele>
        <time>2020-09-30T08:01:27Z</time>
      </trkpt>
      <trkpt lat="46.18723" lon="6.25097">
        <ele>193</ele>
        <time>2020-09-30T08:01:23Z</time>
      </trkpt>
      <trkpt lat="46.18743" lon="6.25091">
        <ele>192.8</ele>
        <time>2020-09-30T08:01:19Z</time>
      </trkpt>
      <trkpt lat="46.18761" lon="6.25084">
        <ele>192.6</ele>
        <time>2020-09-30T08:01:15Z</time>
      </trkpt>
      <trkpt lat="46.1878" lon="6.2508">
        <ele>192</ele>
        <time>2020-09-30T08:01:11Z</time>
      </trkpt>
      <trkpt lat="46.18799" lon="6.25077">
        <ele>191.6</ele>
        <time>2020-09-30T08:01:07Z</time>
      </trkpt>
      <trkpt lat="46.18818" lon="6.25076">
        <ele>190.8</ele>
        <time>2020-09-30T08:01:03Z</time>
      </trkpt>
      <trkpt lat="46.18836" lon="6.25077">
        <ele>190.8</ele>
        <time>2020-09-30T08:00:59Z</time>
      </trkpt>
      <trkpt lat="46.18853" lon="6.25077">
        <ele>190.4</ele>
        <time>2020-09-30T08:00:55Z</time>
      </trkpt>
      <trkpt lat="46.18867" lon="6.25077">
        <ele>191</ele>
        <time>2020-09-30T08:00:51Z</time>
      </trkpt>
      <trkpt lat="46.18877" lon="6.25076">
        <ele>190.6</ele>
        <time>2020-09-30T08:00:47Z</time>
      </trkpt>
      <trkpt lat="46.18877" lon="6.25076">
        <ele>190.8</ele>
        <time>2020-09-30T08:00:43Z</time>
      </trkpt>
      <trkpt lat="46.18877" lon="6.25076">
        <ele>191</ele>
        <time>2020-09-30T08:00:39Z</time>
      </trkpt>
      <trkpt lat="46.18877" lon="6.25076">
        <ele>191.2</ele>
        <time>2020-09-30T08:00:35Z</time>
      </trkpt>
      <trkpt lat="46.18877" lon="6.25076">
        <ele>191.2</ele>
        <time>2020-09-30T08:00:31Z</time>
      </trkpt>
      <trkpt lat="46.18877" lon="6.25076">
        <ele>191.2</ele>
        <time>2020-09-30T08:00:31Z</time>
      </trkpt>
      <trkpt lat="46.18877" lon="6.25076">
        <ele>191.2</ele>
        <time>2020-09-30T08:00:31Z</time>
      </trkpt>
    </trkseg>
  </trk>
</gpx>